createdAt,value
2019-02-15T00:00:02.879Z,3.90
2019-02-15T00:01:02.833Z,4.10
2019-02-15T00:02:02.831Z,3.70
2019-02-15T00:03:02.822Z,4.00
2019-02-15T00:04:02.812Z,5.00
2019-02-15T00:05:02.842Z,5.60
2019-02-15T00:06:02.836Z,4.90
2019-02-15T00:07:02.794Z,4.70
2019-02-15T00:08:02.790Z,4.20
2019-02-15T00:09:02.776Z,4.00
2019-02-15T00:10:02.826Z,4.00
2019-02-15T00:11:02.759Z,4.30
2019-02-15T00:12:02.756Z,4.30
2019-02-15T00:13:02.748Z,4.00
2019-02-15T00:14:02.741Z,4.30
2019-02-15T00:15:02.772Z,4.20
2019-02-15T00:16:02.735Z,4.00
2019-02-15T00:17:02.716Z,4.40
2019-02-15T00:18:02.707Z,4.00
2019-02-15T00:19:02.734Z,4.00
2019-02-15T00:20:02.737Z,3.90
2019-02-15T00:21:02.694Z,3.80
2019-02-15T00:22:02.685Z,4.10
2019-02-15T00:23:02.679Z,4.00
2019-02-15T00:24:02.667Z,3.70
2019-02-15T00:25:02.704Z,3.90
2019-02-15T00:26:02.692Z,3.80
2019-02-15T00:27:02.648Z,3.90
2019-02-15T00:28:02.640Z,4.30
2019-02-15T00:29:02.632Z,4.10
2019-02-15T00:30:02.673Z,4.00
2019-02-15T00:31:02.661Z,4.30
2019-02-15T00:32:02.653Z,4.60
2019-02-15T00:33:02.611Z,4.20
2019-02-15T00:34:02.609Z,4.10
2019-02-15T00:35:02.593Z,4.10
2019-02-15T00:36:02.624Z,4.30
2019-02-15T00:37:02.583Z,4.60
2019-02-15T00:38:02.571Z,4.30
2019-02-15T00:39:02.568Z,4.10
2019-02-15T00:40:02.557Z,5.90
2019-02-15T00:41:02.593Z,4.10
2019-02-15T00:42:02.547Z,4.20
2019-02-15T00:43:02.535Z,4.10
2019-02-15T00:44:02.533Z,3.70
2019-02-15T00:45:02.523Z,3.80
2019-02-15T00:46:02.554Z,3.50
2019-02-15T00:47:02.509Z,3.70
2019-02-15T00:48:02.497Z,3.10
2019-02-15T00:49:02.493Z,4.10
2019-02-15T00:50:02.479Z,3.80
2019-02-15T00:51:02.517Z,4.80
2019-02-15T00:52:02.468Z,4.80
2019-02-15T00:53:02.471Z,6.80
2019-02-15T00:54:02.456Z,7.90
2019-02-15T00:55:02.451Z,12.70
2019-02-15T00:56:02.473Z,14.30
2019-02-15T00:57:02.473Z,10.90
2019-02-15T00:58:02.424Z,8.10
2019-02-15T00:59:02.456Z,4.20
2019-02-15T01:00:02.405Z,3.40
2019-02-15T01:01:02.445Z,2.80
2019-02-15T01:02:02.401Z,2.90
2019-02-15T01:03:02.396Z,2.70
2019-02-15T01:04:02.386Z,2.70
2019-02-15T01:05:02.380Z,2.70
2019-02-15T01:06:02.411Z,3.40
2019-02-15T01:07:02.406Z,3.10
2019-02-15T01:08:02.359Z,3.10
2019-02-15T01:09:02.353Z,2.80
2019-02-15T01:10:02.341Z,2.90
2019-02-15T01:11:02.339Z,2.90
2019-02-15T01:12:02.407Z,2.80
2019-02-15T01:13:02.321Z,3.10
2019-02-15T01:14:02.315Z,3.00
2019-02-15T01:15:02.306Z,3.20
2019-02-15T01:16:02.301Z,3.20
2019-02-15T01:17:02.327Z,2.90
2019-02-15T01:18:02.314Z,2.60
2019-02-15T01:19:02.280Z,3.10
2019-02-15T01:20:02.271Z,2.80
2019-02-15T01:21:02.265Z,3.00
2019-02-15T01:22:02.301Z,2.70
2019-02-15T01:23:02.245Z,3.00
2019-02-15T01:24:02.238Z,2.60
2019-02-15T01:25:02.236Z,2.80
2019-02-15T01:26:02.222Z,2.60
2019-02-15T01:27:02.266Z,2.70
2019-02-15T01:28:02.222Z,2.70
2019-02-15T01:29:02.208Z,2.80
2019-02-15T01:30:02.193Z,3.10
2019-02-15T01:31:02.191Z,2.90
2019-02-15T01:32:02.226Z,2.90
2019-02-15T01:33:02.181Z,3.00
2019-02-15T01:34:02.165Z,3.50
2019-02-15T01:35:02.167Z,3.20
2019-02-15T01:36:02.191Z,3.30
2019-02-15T01:37:02.141Z,4.10
2019-02-15T01:38:02.175Z,3.70
2019-02-15T01:39:02.131Z,3.40
2019-02-15T01:40:02.130Z,3.40
2019-02-15T01:41:02.120Z,3.50
2019-02-15T01:42:02.113Z,3.50
2019-02-15T01:43:02.138Z,3.40
2019-02-15T01:44:02.094Z,3.70
2019-02-15T01:45:02.087Z,4.10
2019-02-15T01:46:02.073Z,3.90
2019-02-15T01:47:02.073Z,4.30
2019-02-15T01:48:02.098Z,4.20
2019-02-15T01:49:02.081Z,4.30
2019-02-15T01:50:02.048Z,3.90
2019-02-15T01:51:02.051Z,4.20
2019-02-15T01:52:02.033Z,4.30
2019-02-15T01:53:02.066Z,4.60
2019-02-15T01:54:02.025Z,4.60
2019-02-15T01:55:02.010Z,4.40
2019-02-15T01:56:02.006Z,4.60
2019-02-15T01:57:01.997Z,4.50
2019-02-15T01:58:02.031Z,5.00
2019-02-15T01:59:02.023Z,5.50
2019-02-15T02:00:01.981Z,5.60
2019-02-15T02:01:01.972Z,4.70
2019-02-15T02:02:01.961Z,5.10
2019-02-15T02:03:01.956Z,4.70
2019-02-15T02:04:01.986Z,4.90
2019-02-15T02:05:01.933Z,4.60
2019-02-15T02:06:01.934Z,4.30
2019-02-15T02:07:01.927Z,4.10
2019-02-15T02:08:01.959Z,3.30
2019-02-15T02:09:01.951Z,3.10
2019-02-15T02:10:01.910Z,3.00
2019-02-15T02:11:01.901Z,2.80
2019-02-15T02:12:01.895Z,2.50
2019-02-15T02:13:01.881Z,3.00
2019-02-15T02:14:01.907Z,2.80
2019-02-15T02:15:01.866Z,2.50
2019-02-15T02:16:01.864Z,2.60
2019-02-15T02:17:01.854Z,2.50
2019-02-15T02:18:01.850Z,2.50
2019-02-15T02:19:01.877Z,2.50
2019-02-15T02:20:01.823Z,2.40
2019-02-15T02:21:01.821Z,2.70
2019-02-15T02:22:01.817Z,2.50
2019-02-15T02:23:01.957Z,2.50
2019-02-15T02:24:01.838Z,2.70
2019-02-15T02:25:01.794Z,3.20
2019-02-15T02:26:01.785Z,3.10
2019-02-15T02:27:01.777Z,3.00
2019-02-15T02:28:01.769Z,3.00
2019-02-15T02:29:01.799Z,3.00
2019-02-15T02:30:01.756Z,3.10
2019-02-15T02:31:01.752Z,3.10
2019-02-15T02:32:01.741Z,3.20
2019-02-15T02:33:01.733Z,2.80
2019-02-15T02:34:01.772Z,3.30
2019-02-15T02:35:01.725Z,3.20
2019-02-15T02:36:01.706Z,3.50
2019-02-15T02:37:01.706Z,3.40
2019-02-15T02:38:01.696Z,3.30
2019-02-15T02:39:01.731Z,3.20
2019-02-15T02:40:01.679Z,3.40
2019-02-15T02:41:01.675Z,3.40
2019-02-15T02:42:01.684Z,3.30
2019-02-15T02:43:01.662Z,3.40
2019-02-15T02:44:01.685Z,2.80
2019-02-15T02:45:01.684Z,3.10
2019-02-15T02:46:01.641Z,3.20
2019-02-15T02:47:01.634Z,3.50
2019-02-15T02:48:01.623Z,3.20
2019-02-15T02:49:01.655Z,3.50
2019-02-15T02:50:01.602Z,3.20
2019-02-15T02:51:01.595Z,3.40
2019-02-15T02:52:01.593Z,3.60
2019-02-15T02:53:01.583Z,3.20
2019-02-15T02:54:01.627Z,3.60
2019-02-15T02:55:01.580Z,3.60
2019-02-15T02:56:01.567Z,3.60
2019-02-15T02:57:01.571Z,3.30
2019-02-15T02:58:01.544Z,3.70
2019-02-15T02:59:01.580Z,3.50
2019-02-15T03:00:01.576Z,3.40
2019-02-15T03:01:01.526Z,3.40
2019-02-15T03:02:01.523Z,3.60
2019-02-15T03:03:01.521Z,3.30
2019-02-15T03:04:01.553Z,3.20
2019-02-15T03:05:01.500Z,3.20
2019-02-15T03:06:01.495Z,3.20
2019-02-15T03:07:01.523Z,3.20
2019-02-15T03:08:01.477Z,3.70
2019-02-15T03:09:01.474Z,3.50
2019-02-15T03:10:01.501Z,3.00
2019-02-15T03:11:01.451Z,3.10
2019-02-15T03:12:01.467Z,3.20
2019-02-15T03:13:01.439Z,3.00
2019-02-15T03:14:11.118Z,3.30
2019-02-15T03:15:01.461Z,2.90
2019-02-15T03:16:01.412Z,3.10
2019-02-15T03:17:01.406Z,3.10
2019-02-15T03:18:01.403Z,3.30
2019-02-15T03:19:01.406Z,3.20
2019-02-15T03:20:01.498Z,3.00
2019-02-15T03:21:01.414Z,3.10
2019-02-15T03:22:01.371Z,3.20
2019-02-15T03:23:01.367Z,3.10
2019-02-15T03:24:01.360Z,3.40
2019-02-15T03:25:01.389Z,3.20
2019-02-15T03:26:01.349Z,3.90
2019-02-15T03:27:01.338Z,3.70
2019-02-15T03:28:01.329Z,3.40
2019-02-15T03:29:01.319Z,3.00
2019-02-15T03:30:01.349Z,3.20
2019-02-15T03:31:01.397Z,3.60
2019-02-15T03:32:01.299Z,3.10
2019-02-15T03:33:01.319Z,4.00
2019-02-15T03:34:01.284Z,3.50
2019-02-15T03:35:01.305Z,3.70
2019-02-15T03:36:01.266Z,4.10
2019-02-15T03:37:01.253Z,3.50
2019-02-15T03:38:01.255Z,4.00
2019-02-15T03:39:01.255Z,3.90
2019-02-15T03:40:01.279Z,3.80
2019-02-15T03:41:01.231Z,4.00
2019-02-15T03:42:01.227Z,4.30
2019-02-15T03:43:01.221Z,4.50
2019-02-15T03:44:01.208Z,4.50
2019-02-15T03:45:01.229Z,4.40
2019-02-15T03:46:01.193Z,3.80
2019-02-15T03:47:01.188Z,5.60
2019-02-15T03:48:01.177Z,8.10
2019-02-15T03:49:01.169Z,9.40
2019-02-15T03:50:01.208Z,8.90
2019-02-15T03:51:01.161Z,7.70
2019-02-15T03:52:01.150Z,7.30
2019-02-15T03:53:01.143Z,7.00
2019-02-15T03:54:01.147Z,6.20
2019-02-15T03:55:01.161Z,6.90
2019-02-15T03:56:01.129Z,8.20
2019-02-15T03:57:01.109Z,11.90
2019-02-15T03:58:01.106Z,11.10
2019-02-15T03:59:01.101Z,8.40
2019-02-15T04:00:01.215Z,6.60
2019-02-15T04:01:01.081Z,5.40
2019-02-15T04:02:01.075Z,4.60
2019-02-15T04:03:01.067Z,4.00
2019-02-15T04:04:01.058Z,5.20
2019-02-15T04:05:01.079Z,9.60
2019-02-15T04:06:01.052Z,6.00
2019-02-15T04:07:01.041Z,4.10
2019-02-15T04:08:01.024Z,5.40
2019-02-15T04:09:01.017Z,3.60
2019-02-15T04:10:01.016Z,3.70
2019-02-15T04:11:01.030Z,6.90
2019-02-15T04:12:00.996Z,9.00
2019-02-15T04:13:00.987Z,7.10
2019-02-15T04:14:00.983Z,5.30
2019-02-15T04:15:00.973Z,4.30
2019-02-15T04:16:01.000Z,4.20
2019-02-15T04:17:00.955Z,5.10
2019-02-15T04:18:00.951Z,4.90
2019-02-15T04:19:00.939Z,4.90
2019-02-15T04:20:00.946Z,4.70
2019-02-15T04:21:00.955Z,4.60
2019-02-15T04:22:00.914Z,4.20
2019-02-15T04:23:00.959Z,4.50
2019-02-15T04:24:00.906Z,4.00
2019-02-15T04:25:00.892Z,4.70
2019-02-15T04:26:00.914Z,4.80
2019-02-15T04:27:00.877Z,4.30
2019-02-15T04:28:00.866Z,3.40
2019-02-15T04:29:00.867Z,3.70
2019-02-15T04:30:00.854Z,4.90
2019-02-15T04:31:00.876Z,4.70
2019-02-15T04:32:00.840Z,40.30
2019-02-15T04:33:00.831Z,138.00
2019-02-15T04:34:00.822Z,110.90
2019-02-15T04:35:00.820Z,30.30
2019-02-15T04:36:00.832Z,19.00
2019-02-15T04:37:00.799Z,16.10
2019-02-15T04:38:00.798Z,8.20
2019-02-15T04:39:00.781Z,4.80
2019-02-15T04:40:00.816Z,4.80
2019-02-15T04:41:00.794Z,4.20
2019-02-15T04:42:00.760Z,4.00
2019-02-15T04:43:00.754Z,5.60
2019-02-15T04:44:00.746Z,5.40
2019-02-15T04:45:00.737Z,5.90
2019-02-15T04:46:00.753Z,6.50
2019-02-15T04:47:00.731Z,5.90
2019-02-15T04:48:00.714Z,6.00
2019-02-15T04:49:00.703Z,4.20
2019-02-15T04:50:00.699Z,3.90
2019-02-15T04:51:00.729Z,3.70
2019-02-15T04:52:00.681Z,3.50
2019-02-15T04:53:03.066Z,3.70
2019-02-15T04:54:00.666Z,3.40
2019-02-15T04:55:00.655Z,3.80
2019-02-15T04:56:00.680Z,3.80
2019-02-15T04:57:00.641Z,3.30
2019-02-15T04:58:00.639Z,3.30
2019-02-15T04:59:00.636Z,3.60
2019-02-15T05:00:00.751Z,3.60
2019-02-15T05:01:00.648Z,3.90
2019-02-15T05:02:00.606Z,4.10
2019-02-15T05:03:00.605Z,4.00
2019-02-15T05:04:00.592Z,4.20
2019-02-15T05:05:00.617Z,4.00
2019-02-15T05:06:00.600Z,4.10
2019-02-15T05:07:00.568Z,3.60
2019-02-15T05:08:00.555Z,4.10
2019-02-15T05:09:00.549Z,4.00
2019-02-15T05:10:00.539Z,3.80
2019-02-15T05:11:00.571Z,3.70
2019-02-15T05:12:00.522Z,3.60
2019-02-15T05:13:00.571Z,3.90
2019-02-15T05:14:00.509Z,3.80
2019-02-15T05:15:00.543Z,3.80
2019-02-15T05:16:00.526Z,3.80
2019-02-15T05:17:00.485Z,3.70
2019-02-15T05:18:00.475Z,4.00
2019-02-15T05:19:00.466Z,4.20
2019-02-15T05:20:00.465Z,3.80
2019-02-15T05:21:00.486Z,3.60
2019-02-15T05:22:00.440Z,4.00
2019-02-15T05:23:00.439Z,4.20
2019-02-15T05:24:00.434Z,8.00
2019-02-15T05:25:00.434Z,6.40
2019-02-15T05:26:00.447Z,6.60
2019-02-15T05:27:00.404Z,27.90
2019-02-15T05:28:00.404Z,15.70
2019-02-15T05:29:00.389Z,16.20
2019-02-15T05:30:00.425Z,40.10
2019-02-15T05:31:00.367Z,59.60
2019-02-15T05:32:00.395Z,26.90
2019-02-15T05:33:00.358Z,17.10
2019-02-15T05:34:00.346Z,14.40
2019-02-15T05:35:00.337Z,14.70
2019-02-15T05:36:00.336Z,14.50
2019-02-15T05:37:00.358Z,14.60
2019-02-15T05:38:00.322Z,14.60
2019-02-15T05:39:00.310Z,16.20
2019-02-15T05:40:00.354Z,19.20
2019-02-15T05:41:00.300Z,36.00
2019-02-15T05:42:00.312Z,58.80
2019-02-15T05:43:00.297Z,39.30
2019-02-15T05:44:00.268Z,14.10
2019-02-15T05:45:03.866Z,15.80
2019-02-15T05:46:00.255Z,12.30
2019-02-15T05:47:00.272Z,8.90
2019-02-15T05:48:00.239Z,6.10
2019-02-15T05:49:00.243Z,6.20
2019-02-15T05:50:00.434Z,5.20
2019-02-15T05:51:00.214Z,4.80
2019-02-15T05:52:00.232Z,4.90
2019-02-15T05:53:00.197Z,5.40
2019-02-15T05:54:00.183Z,5.90
2019-02-15T05:55:00.388Z,7.10
2019-02-15T05:56:00.167Z,8.80
2019-02-15T05:57:00.193Z,9.80
2019-02-15T05:58:00.151Z,8.00
2019-02-15T05:59:00.146Z,16.60
2019-02-15T06:00:00.264Z,26.00
2019-02-15T06:01:00.132Z,14.80
2019-02-15T06:02:00.148Z,21.00
2019-02-15T06:03:00.117Z,12.90
2019-02-15T06:04:00.109Z,7.40
2019-02-15T06:05:00.325Z,8.40
2019-02-15T06:06:00.089Z,7.50
2019-02-15T06:07:00.109Z,7.50
2019-02-15T06:08:00.071Z,6.90
2019-02-15T06:09:00.075Z,5.80
2019-02-15T06:10:00.061Z,5.70
2019-02-15T06:11:07.536Z,5.50
2019-02-15T06:12:00.072Z,5.20
2019-02-15T06:13:00.045Z,5.00
2019-02-15T06:14:00.028Z,4.70
2019-02-15T06:15:00.019Z,4.90
2019-02-15T06:16:00.013Z,4.60
2019-02-15T06:17:01.726Z,4.50
2019-02-15T06:17:59.995Z,4.60
2019-02-15T06:18:59.990Z,5.10
2019-02-15T06:19:59.980Z,4.70
2019-02-15T06:20:59.970Z,4.40
2019-02-15T06:21:59.995Z,4.40
2019-02-15T06:22:59.959Z,4.30
2019-02-15T06:23:59.945Z,5.10
2019-02-15T06:24:59.938Z,5.10
2019-02-15T06:25:59.933Z,6.70
2019-02-15T06:26:59.953Z,4.30
2019-02-15T06:27:59.914Z,5.70
2019-02-15T06:28:59.907Z,6.30
2019-02-15T06:29:59.897Z,5.30
2019-02-15T06:30:59.891Z,5.30
2019-02-15T06:31:59.918Z,6.10
2019-02-15T06:32:59.875Z,3.60
2019-02-15T06:33:59.926Z,2.90
2019-02-15T06:34:59.857Z,2.80
2019-02-15T06:35:59.850Z,3.10
2019-02-15T06:36:59.937Z,3.50
2019-02-15T06:37:59.841Z,3.70
2019-02-15T06:38:59.830Z,3.60
2019-02-15T06:39:59.828Z,3.50
2019-02-15T06:40:59.813Z,3.50
2019-02-15T06:41:59.839Z,3.50
2019-02-15T06:42:59.812Z,3.80
2019-02-15T06:43:59.791Z,3.80
2019-02-15T06:44:59.782Z,4.60
2019-02-15T06:45:59.778Z,4.40
2019-02-15T06:46:59.770Z,4.80
2019-02-15T06:47:59.808Z,4.50
2019-02-15T06:48:59.752Z,4.80
2019-02-15T06:49:59.751Z,5.00
2019-02-15T06:50:59.737Z,4.90
2019-02-15T06:52:00.349Z,4.90
2019-02-15T06:52:59.750Z,5.00
2019-02-15T06:53:59.744Z,5.20
2019-02-15T06:54:59.708Z,4.90
2019-02-15T06:55:59.700Z,4.50
2019-02-15T06:56:59.691Z,4.60
2019-02-15T06:57:59.685Z,5.00
2019-02-15T06:58:59.705Z,4.70
2019-02-15T06:59:59.671Z,5.20
2019-02-15T07:00:59.673Z,5.40
2019-02-15T07:01:59.656Z,6.40
2019-02-15T07:02:59.675Z,5.20
2019-02-15T07:03:59.653Z,5.30
2019-02-15T07:04:59.663Z,5.00
2019-02-15T07:05:59.634Z,5.40
2019-02-15T07:06:59.619Z,4.60
2019-02-15T07:07:59.611Z,4.60
2019-02-15T07:08:59.603Z,4.10
2019-02-15T07:09:59.621Z,3.80
2019-02-15T07:10:59.587Z,3.80
2019-02-15T07:11:59.581Z,4.00
2019-02-15T07:12:59.573Z,3.90
2019-02-15T07:13:59.569Z,4.00
2019-02-15T07:14:59.586Z,3.70
2019-02-15T07:15:59.551Z,3.40
2019-02-15T07:16:59.545Z,3.30
2019-02-15T07:17:59.538Z,3.50
2019-02-15T07:18:59.530Z,4.40
2019-02-15T07:19:59.551Z,11.70
2019-02-15T07:20:59.514Z,8.80
2019-02-15T07:21:59.511Z,7.30
2019-02-15T07:22:59.503Z,7.00
2019-02-15T07:23:59.497Z,7.90
2019-02-15T07:24:59.514Z,7.40
2019-02-15T07:25:59.479Z,5.50
2019-02-15T07:26:59.479Z,6.00
2019-02-15T07:27:59.466Z,5.70
2019-02-15T07:28:59.461Z,13.90
2019-02-15T07:29:59.485Z,12.70
2019-02-15T07:30:59.453Z,8.60
2019-02-15T07:31:59.453Z,6.40
2019-02-15T07:32:59.442Z,5.90
2019-02-15T07:33:59.438Z,5.60
2019-02-15T07:34:59.469Z,4.80
2019-02-15T07:35:59.431Z,6.60
2019-02-15T07:36:59.425Z,6.10
2019-02-15T07:37:59.430Z,5.70
2019-02-15T07:38:59.430Z,4.80
2019-02-15T07:39:59.445Z,4.90
2019-02-15T07:40:59.413Z,5.30
2019-02-15T07:41:59.414Z,5.40
2019-02-15T07:42:59.414Z,4.90
2019-02-15T07:43:59.466Z,6.30
2019-02-15T07:44:59.450Z,8.40
2019-02-15T07:45:59.433Z,11.00
2019-02-15T07:46:59.406Z,11.40
2019-02-15T07:47:59.410Z,11.30
2019-02-15T07:48:59.400Z,10.20
2019-02-15T07:49:59.401Z,9.40
2019-02-15T07:50:59.450Z,9.40
2019-02-15T07:51:59.400Z,10.10
2019-02-15T07:52:59.405Z,8.90
2019-02-15T07:53:59.407Z,9.40
2019-02-15T07:54:59.435Z,10.00
2019-02-15T07:55:59.405Z,9.80
2019-02-15T07:56:59.404Z,7.90
2019-02-15T07:57:59.410Z,8.00
2019-02-15T07:58:59.411Z,8.70
2019-02-15T08:00:00.615Z,8.40
2019-02-15T08:00:59.408Z,9.40
2019-02-15T08:02:01.769Z,9.20
2019-02-15T08:02:59.412Z,17.00
2019-02-15T08:03:59.438Z,23.60
2019-02-15T08:04:59.415Z,11.30
2019-02-15T08:05:59.447Z,11.20
2019-02-15T08:06:59.423Z,19.90
2019-02-15T08:07:59.419Z,57.40
2019-02-15T08:08:59.423Z,78.50
2019-02-15T08:09:59.428Z,59.20
2019-02-15T08:10:59.455Z,44.50
2019-02-15T08:11:59.433Z,32.50
2019-02-15T08:12:59.435Z,28.00
2019-02-15T08:13:59.439Z,20.80
2019-02-15T08:14:59.438Z,12.80
2019-02-15T08:15:59.469Z,8.70
2019-02-15T08:16:59.443Z,7.90
2019-02-15T08:17:59.451Z,6.50
2019-02-15T08:18:59.454Z,6.50
2019-02-15T08:19:59.458Z,6.20
2019-02-15T08:20:59.487Z,6.40
2019-02-15T08:21:59.463Z,7.00
2019-02-15T08:22:59.467Z,7.20
2019-02-15T08:23:59.470Z,6.00
2019-02-15T08:24:59.475Z,5.00
2019-02-15T08:25:59.508Z,5.30
2019-02-15T08:26:59.486Z,5.00
2019-02-15T08:27:59.498Z,4.80
2019-02-15T08:28:59.494Z,5.40
2019-02-15T08:29:59.499Z,5.60
2019-02-15T08:30:59.531Z,5.50
2019-02-15T08:31:59.692Z,6.10
2019-02-15T08:32:59.521Z,7.30
2019-02-15T08:33:59.519Z,8.10
2019-02-15T08:34:59.530Z,7.40
2019-02-15T08:35:59.552Z,7.60
2019-02-15T08:36:59.535Z,8.30
2019-02-15T08:37:59.541Z,8.00
2019-02-15T08:38:59.546Z,7.30
2019-02-15T08:39:59.553Z,7.30
2019-02-15T08:40:59.617Z,5.90
2019-02-15T08:42:03.859Z,5.90
2019-02-15T08:42:59.569Z,5.90
2019-02-15T08:43:59.601Z,5.90
2019-02-15T08:44:59.581Z,5.60
2019-02-15T08:46:02.702Z,5.30
2019-02-15T08:46:59.594Z,5.50
2019-02-15T08:47:59.599Z,5.60
2019-02-15T08:48:59.605Z,6.00
2019-02-15T08:49:59.610Z,6.10
2019-02-15T08:50:59.650Z,6.10
2019-02-15T08:51:59.640Z,6.20
2019-02-15T08:52:59.629Z,6.00
2019-02-15T08:53:59.637Z,6.50
2019-02-15T08:54:59.645Z,5.90
2019-02-15T08:55:59.677Z,8.00
2019-02-15T08:56:59.657Z,7.80
2019-02-15T08:57:59.689Z,6.40
2019-02-15T08:58:59.675Z,6.30
2019-02-15T08:59:59.689Z,6.30
2019-02-15T09:00:59.721Z,5.70
2019-02-15T09:01:59.696Z,5.50
2019-02-15T09:02:59.710Z,5.50
2019-02-15T09:03:59.711Z,4.20
2019-02-15T09:05:01.816Z,4.30
2019-02-15T09:05:59.756Z,4.00
2019-02-15T09:06:59.739Z,4.20
2019-02-15T09:07:59.750Z,4.20
2019-02-15T09:08:59.764Z,3.80
2019-02-15T09:09:59.764Z,5.00
2019-02-15T09:10:59.817Z,4.60
2019-02-15T09:11:59.975Z,6.10
2019-02-15T09:12:59.812Z,4.20
2019-02-15T09:13:59.804Z,4.30
2019-02-15T09:14:59.894Z,5.10
2019-02-15T09:15:59.845Z,4.30
2019-02-15T09:16:59.832Z,4.20
2019-02-15T09:17:59.840Z,4.00
2019-02-15T09:18:59.863Z,3.90
2019-02-15T09:19:59.858Z,4.40
2019-02-15T09:20:59.902Z,3.60
2019-02-15T09:21:59.880Z,3.20
2019-02-15T09:22:59.901Z,3.80
2019-02-15T09:23:59.898Z,3.40
2019-02-15T09:24:59.912Z,3.30
2019-02-15T09:25:59.953Z,3.50
2019-02-15T09:26:59.932Z,5.10
2019-02-15T09:27:59.944Z,3.30
2019-02-15T09:28:59.954Z,4.00
2019-02-15T09:29:59.968Z,4.00
2019-02-15T09:31:00.007Z,4.10
2019-02-15T09:32:00.115Z,3.80
2019-02-15T09:32:59.996Z,3.30
2019-02-15T09:34:00.008Z,3.80
2019-02-15T09:35:00.015Z,3.40
2019-02-15T09:36:00.067Z,3.40
2019-02-15T09:37:00.049Z,3.30
2019-02-15T09:38:00.060Z,3.50
2019-02-15T09:39:00.066Z,3.20
2019-02-15T09:40:00.106Z,3.40
2019-02-15T09:41:00.116Z,3.00
2019-02-15T09:42:00.099Z,3.40
2019-02-15T09:43:00.113Z,3.10
2019-02-15T09:44:00.127Z,3.40
2019-02-15T09:45:00.263Z,3.80
2019-02-15T09:46:00.181Z,3.50
2019-02-15T09:47:00.163Z,3.70
2019-02-15T09:48:00.180Z,3.60
2019-02-15T09:49:00.191Z,3.60
2019-02-15T09:50:00.328Z,3.50
2019-02-15T09:51:00.249Z,3.40
2019-02-15T09:52:00.235Z,3.60
2019-02-15T09:53:00.243Z,3.30
2019-02-15T09:54:00.256Z,3.80
2019-02-15T09:55:00.293Z,3.60
2019-02-15T09:56:00.316Z,3.50
2019-02-15T09:57:00.295Z,3.80
2019-02-15T09:58:00.311Z,3.90
2019-02-15T09:59:00.325Z,4.00
2019-02-15T10:00:00.338Z,3.80
2019-02-15T10:01:00.379Z,3.90
2019-02-15T10:02:00.367Z,4.00
2019-02-15T10:03:00.382Z,4.00
2019-02-15T10:04:00.394Z,4.00
2019-02-15T10:05:00.410Z,3.80
2019-02-15T10:06:00.450Z,4.00
2019-02-15T10:07:00.437Z,4.30
2019-02-15T10:08:00.555Z,3.90
2019-02-15T10:09:00.470Z,3.80
2019-02-15T10:10:00.486Z,3.70
2019-02-15T10:11:00.533Z,4.00
2019-02-15T10:12:00.520Z,4.00
2019-02-15T10:13:00.538Z,3.90
2019-02-15T10:14:00.546Z,4.30
2019-02-15T10:15:00.560Z,4.00
2019-02-15T10:16:00.605Z,4.00
2019-02-15T10:17:00.597Z,3.80
2019-02-15T10:18:00.623Z,3.80
2019-02-15T10:19:00.632Z,3.60
2019-02-15T10:20:00.669Z,3.80
2019-02-15T10:21:00.670Z,3.70
2019-02-15T10:22:00.703Z,3.80
2019-02-15T10:23:00.699Z,3.90
2019-02-15T10:24:00.711Z,3.80
2019-02-15T10:25:00.724Z,3.70
2019-02-15T10:26:00.749Z,4.00
2019-02-15T10:27:00.789Z,3.80
2019-02-15T10:28:00.778Z,4.00
2019-02-15T10:29:00.793Z,3.70
2019-02-15T10:30:02.420Z,3.80
2019-02-15T10:31:00.831Z,3.60
2019-02-15T10:32:00.890Z,3.50
2019-02-15T10:33:00.890Z,4.10
2019-02-15T10:34:00.885Z,3.70
2019-02-15T10:35:00.897Z,3.90
2019-02-15T10:36:00.912Z,4.10
2019-02-15T10:37:00.962Z,3.60
2019-02-15T10:38:00.952Z,3.90
2019-02-15T10:39:00.968Z,3.90
2019-02-15T10:40:00.986Z,3.80
2019-02-15T10:41:01.008Z,3.80
2019-02-15T10:42:01.055Z,3.60
2019-02-15T10:43:01.045Z,3.60
2019-02-15T10:44:01.062Z,3.90
2019-02-15T10:45:01.079Z,3.60
2019-02-15T10:46:01.136Z,3.50
2019-02-15T10:47:01.113Z,3.70
2019-02-15T10:48:01.165Z,3.70
2019-02-15T10:49:01.151Z,3.90
2019-02-15T10:50:02.279Z,3.80
2019-02-15T10:51:01.194Z,3.70
2019-02-15T10:52:01.297Z,3.50
2019-02-15T10:53:01.254Z,3.60
2019-02-15T10:54:02.001Z,3.80
2019-02-15T10:55:01.263Z,3.40
2019-02-15T10:56:01.278Z,3.60
2019-02-15T10:57:01.304Z,3.60
2019-02-15T10:58:01.510Z,3.60
2019-02-15T10:59:01.339Z,3.90
2019-02-15T11:00:01.358Z,3.40
2019-02-15T11:01:01.378Z,3.30
2019-02-15T11:02:01.399Z,3.70
2019-02-15T11:03:01.441Z,3.20
2019-02-15T11:04:01.562Z,3.60
2019-02-15T11:05:01.468Z,3.20
2019-02-15T11:06:01.471Z,3.90
2019-02-15T11:07:01.520Z,3.40
2019-02-15T11:08:01.510Z,3.60
2019-02-15T11:09:01.529Z,3.30
2019-02-15T11:10:01.554Z,3.30
2019-02-15T11:11:01.940Z,3.40
2019-02-15T11:12:01.636Z,3.10
2019-02-15T11:13:01.636Z,3.50
2019-02-15T11:14:01.625Z,3.30
2019-02-15T11:15:01.646Z,3.70
2019-02-15T11:16:01.676Z,3.60
2019-02-15T11:17:03.133Z,3.40
2019-02-15T11:18:01.737Z,3.40
2019-02-15T11:19:01.729Z,3.00
2019-02-15T11:20:09.502Z,2.90
2019-02-15T11:21:02.821Z,2.50
2019-02-15T11:22:01.789Z,3.00
2019-02-15T11:23:01.829Z,3.00
2019-02-15T11:24:01.834Z,2.70
2019-02-15T11:25:01.853Z,2.80
2019-02-15T11:26:01.868Z,3.10
2019-02-15T11:27:01.891Z,3.10
2019-02-15T11:28:01.935Z,3.00
2019-02-15T11:29:01.930Z,2.60
2019-02-15T11:30:01.957Z,3.00
2019-02-15T11:31:01.973Z,2.90
2019-02-15T11:32:01.988Z,2.90
2019-02-15T11:33:02.042Z,3.20
2019-02-15T11:34:02.883Z,3.00
2019-02-15T11:35:02.055Z,2.90
2019-02-15T11:36:02.076Z,2.80
2019-02-15T11:37:02.106Z,3.00
2019-02-15T11:38:02.150Z,3.30
2019-02-15T11:39:02.139Z,3.30
2019-02-15T11:40:02.157Z,3.00
2019-02-15T11:41:10.931Z,3.00
2019-02-15T11:42:02.200Z,2.90
2019-02-15T11:43:02.246Z,2.70
2019-02-15T11:44:02.237Z,3.10
2019-02-15T11:45:02.262Z,2.90
2019-02-15T11:46:02.280Z,2.90
2019-02-15T11:47:02.304Z,2.90
2019-02-15T11:48:02.348Z,2.80
2019-02-15T11:49:02.345Z,2.90
2019-02-15T11:50:02.365Z,3.00
2019-02-15T11:51:02.391Z,3.00
2019-02-15T11:52:02.405Z,2.90
2019-02-15T11:53:02.455Z,3.10
2019-02-15T11:54:02.453Z,3.00
2019-02-15T11:55:02.471Z,2.60
2019-02-15T11:56:02.545Z,2.90
2019-02-15T11:57:02.509Z,3.50
2019-02-15T11:58:02.558Z,2.90
2019-02-15T11:59:02.567Z,2.80
2019-02-15T12:00:02.576Z,2.50
2019-02-15T12:01:02.706Z,3.00
2019-02-15T12:02:06.234Z,2.90
2019-02-15T12:03:02.672Z,2.90
2019-02-15T12:04:02.656Z,2.90
2019-02-15T12:05:02.681Z,3.10
2019-02-15T12:06:03.843Z,2.90
2019-02-15T12:07:02.733Z,2.90
2019-02-15T12:08:02.771Z,2.90
2019-02-15T12:09:02.764Z,3.10
2019-02-15T12:10:02.785Z,2.80
2019-02-15T12:11:02.807Z,2.70
2019-02-15T12:12:10.400Z,2.70
2019-02-15T12:13:02.877Z,3.10
2019-02-15T12:14:02.872Z,2.80
2019-02-15T12:15:02.893Z,2.50
2019-02-15T12:16:02.914Z,2.70
2019-02-15T12:17:05.715Z,2.90
2019-02-15T12:18:02.988Z,2.50
2019-02-15T12:19:02.978Z,2.70
2019-02-15T12:20:03.003Z,2.60
2019-02-15T12:21:03.051Z,2.60
2019-02-15T12:22:03.045Z,2.70
2019-02-15T12:23:03.094Z,2.50
2019-02-15T12:24:03.101Z,2.60
2019-02-15T12:25:03.107Z,2.30
2019-02-15T12:26:03.130Z,2.60
2019-02-15T12:27:03.148Z,2.60
2019-02-15T12:28:03.204Z,2.40
2019-02-15T12:29:03.192Z,2.20
2019-02-15T12:30:03.218Z,2.30
2019-02-15T12:31:03.238Z,2.10
2019-02-15T12:32:03.253Z,2.20
2019-02-15T12:33:03.310Z,2.10
2019-02-15T12:34:03.300Z,2.30
2019-02-15T12:35:03.333Z,2.30
2019-02-15T12:36:03.356Z,2.60
2019-02-15T12:37:03.366Z,2.50
2019-02-15T12:38:03.413Z,2.60
2019-02-15T12:39:03.408Z,2.60
2019-02-15T12:40:03.438Z,2.50
2019-02-15T12:41:03.501Z,2.70
2019-02-15T12:42:03.470Z,2.70
2019-02-15T12:43:03.522Z,2.70
2019-02-15T12:44:03.513Z,2.50
2019-02-15T12:45:03.533Z,2.50
2019-02-15T12:46:03.553Z,2.40
2019-02-15T12:47:03.580Z,2.50
2019-02-15T12:48:03.620Z,2.30
2019-02-15T12:49:03.644Z,2.50
2019-02-15T12:50:03.642Z,2.20
2019-02-15T12:51:03.657Z,2.40
2019-02-15T12:52:03.680Z,2.80
2019-02-15T12:53:03.725Z,2.80
2019-02-15T12:54:03.722Z,2.90
2019-02-15T12:55:04.074Z,2.40
2019-02-15T12:56:03.764Z,2.60
2019-02-15T12:57:03.781Z,2.60
2019-02-15T12:58:03.829Z,2.60
2019-02-15T12:59:03.822Z,2.70
2019-02-15T13:00:03.840Z,2.60
2019-02-15T13:01:03.954Z,2.60
2019-02-15T13:02:03.880Z,2.50
2019-02-15T13:03:03.928Z,2.40
2019-02-15T13:04:03.920Z,2.50
2019-02-15T13:05:03.952Z,2.50
2019-02-15T13:06:03.963Z,2.40
2019-02-15T13:07:03.990Z,2.20
2019-02-15T13:08:04.034Z,2.20
2019-02-15T13:09:04.025Z,2.10
2019-02-15T13:10:04.044Z,1.90
2019-02-15T13:11:04.066Z,1.90
2019-02-15T13:12:04.081Z,1.90
2019-02-15T13:13:04.135Z,2.00
2019-02-15T13:14:04.124Z,2.10
2019-02-15T13:15:04.152Z,1.90
2019-02-15T13:16:04.159Z,2.30